This is the latest recevied weather packets stored in our database for station/object IK0TIX. If no packets are shown the sender has not sent any weather packets the latest 10 day(s).
| Time | Temp. | Humidity | Pressure | Rain* | Wind** | Luminosity | Snow |
|---|---|---|---|---|---|---|---|
| 1777913373 | 20° C | 61% | 1018.8 hPa | 0 mm | - | - | - |
| 1777911579 | 20.56° C | 58% | 1018.8 hPa | 0 mm | - | - | - |
| 1777911273 | 20.56° C | 62% | 1018.9 hPa | 0 mm | - | - | - |
| 1777910071 | 20.56° C | 62% | 1019 hPa | 0 mm | - | - | - |
| 1777909489 | 20.56° C | 61% | 1018.9 hPa | 0 mm | - | - | - |
| 1777907669 | 20.56° C | 62% | 1018.7 hPa | 0 mm | - | - | - |
| 1777904979 | 21.67° C | 57% | 1019.2 hPa | 0 mm | - | - | - |
| 1777903803 | 22.78° C | 52% | 1019.2 hPa | 0 mm | - | - | - |
| 1777903188 | 22.78° C | 52% | 1019.2 hPa | 0 mm | - | - | - |
| 1777901995 | 22.78° C | 50% | 1019.2 hPa | 0 mm | - | - | - |
| 1777901073 | 22.78° C | 50% | 1019.2 hPa | 0 mm | - | - | - |
| 1777900521 | 23.33° C | 49% | 1019.5 hPa | 0 mm | - | - | - |
| 1777898684 | 23.89° C | 46% | 1019.9 hPa | 0 mm | - | - | - |
| 1777897471 | 23.89° C | 46% | 1019.8 hPa | 0 mm | - | - | - |
| 1777897212 | 23.89° C | 46% | 1019.9 hPa | 0 mm | - | - | - |
| 1777896003 | 23.33° C | 49% | 1020 hPa | 0 mm | - | - | - |
| 1777894785 | 23.89° C | 48% | 1020.1 hPa | 0 mm | - | - | - |
| 1777894503 | 23.89° C | 48% | 1020.1 hPa | 0 mm | - | - | - |
| 1777893269 | 24.44° C | 46% | 1020.2 hPa | 0 mm | - | - | - |
| 1777892683 | 25° C | 46% | 1020.3 hPa | 0 mm | - | - | - |
| 1777890021 | 25° C | 46% | 1020.4 hPa | 0 mm | - | - | - |
| 1777889391 | 24.44° C | 48% | 1020.5 hPa | 0 mm | - | - | - |
| 1777887596 | 23.33° C | 50% | 1020.7 hPa | 0 mm | - | - | - |
| 1777887005 | 22.78° C | 51% | 1020.8 hPa | 0 mm | - | - | - |
| 1777884886 | 22.22° C | 52% | 1020.8 hPa | 0 mm | - | - | - |
* Rain latest hour (hover to see other rain measurements)
** Current wind speed in m/s (hover to see current wind gust speed)